Time;durP1;ratioP1;P1;durP2;ratioP2;P2;SDS_P1;SDS_P2;PMS_P1;PMS_P2;Temp;Humidity;BMP_temperature;BMP_pressure;BME280_temperature;BME280_humidity;BME280_pressure;Samples;Min_cycle;Max_cycle;Signal;HPM_P1;HPM_P2
2022/01/12 00:02:20;;;;;;;;;69.00;50.25;;;;;4.72;65.54;103328.28;6270915;22;45678;-84
2022/01/12 00:04:48;;;;;;;;;69.00;53.00;;;;;4.66;65.81;103309.66;6250471;22;47802;-83
2022/01/12 00:07:16;;;;;;;;;74.50;53.50;;;;;4.56;65.93;103306.44;6281292;22;45619;-84
2022/01/12 00:09:41;;;;;;;;;67.75;54.25;;;;;4.63;66.02;103313.84;6252687;22;45387;-83
2022/01/12 00:12:19;;;;;;;;;67.50;51.00;;;;;4.72;65.69;103326.56;6278444;22;45599;-83
2022/01/12 00:14:50;;;;;;;;;68.25;52.50;;;;;4.60;65.80;103312.78;6254605;22;46549;-83
2022/01/12 00:17:16;;;;;;;;;59.50;49.25;;;;;4.69;65.83;103323.75;6283336;22;45378;-82
2022/01/12 00:19:47;;;;;;;;;66.50;52.00;;;;;4.53;65.61;103306.25;6279227;22;45473;-82
2022/01/12 00:22:13;;;;;;;;;65.50;53.25;;;;;4.66;65.90;103323.59;6253515;22;46139;-83
2022/01/12 00:40:47;;;;;;;;;58.50;44.75;;;;;4.59;65.79;103348.38;6251094;22;45322;-90
2022/01/12 00:43:48;;;;;;;;;64.50;49.25;;;;;4.52;65.59;103355.75;6200938;22;45400;-91
2022/01/12 00:46:19;;;;;;;;;64.25;51.25;;;;;4.41;65.79;103337.69;6251098;22;45159;-90
2022/01/12 00:48:55;;;;;;;;;64.50;53.00;;;;;4.23;66.04;103310.44;6275582;22;47987;-89
2022/01/12 00:51:31;;;;;;;;;65.75;49.75;;;;;4.26;66.08;103334.09;6278456;22;45408;-86
2022/01/12 00:54:01;;;;;;;;;61.25;48.00;;;;;4.39;66.16;103368.00;6249355;22;45478;-86
2022/01/12 00:56:34;;;;;;;;;67.00;51.25;;;;;4.29;66.12;103365.59;6249056;22;45633;-85
2022/01/12 00:59:05;;;;;;;;;71.00;54.00;;;;;4.06;66.16;103343.25;6251071;22;46327;-87
2022/01/12 01:01:43;;;;;;;;;58.25;48.75;;;;;4.04;66.38;103351.78;6251304;22;45367;-86
2022/01/12 01:04:14;;;;;;;;;72.50;53.00;;;;;3.94;66.56;103352.88;6276345;22;45207;-86
2022/01/12 01:06:40;;;;;;;;;68.25;52.75;;;;;4.00;67.08;103376.72;6250982;22;45363;-88
2022/01/12 01:09:10;;;;;;;;;63.75;50.25;;;;;3.98;67.56;103373.13;6248115;22;47815;-87
2022/01/12 01:11:41;;;;;;;;;64.50;51.00;;;;;3.93;67.59;103369.34;6274620;22;45196;-87
2022/01/12 01:14:22;;;;;;;;;68.25;51.25;;;;;3.94;67.60;103374.63;6253885;22;45393;-85
2022/01/12 01:17:06;;;;;;;;;64.75;51.25;;;;;3.79;67.06;103352.75;6277071;22;45442;-89
2022/01/12 01:28:14;;;;;;;;;73.50;54.75;;;;;3.88;67.27;103422.84;6237701;22;45349;-86
2022/01/12 01:30:44;;;;;;;;;70.00;53.25;;;;;3.64;67.94;103396.06;6248552;22;46420;-87
2022/01/12 01:33:17;;;;;;;;;73.50;56.00;;;;;3.52;67.54;103390.91;6247806;22;45346;-87
2022/01/12 01:35:54;;;;;;;;;75.75;58.50;;;;;3.61;67.82;103407.16;6273859;22;45138;-86
2022/01/12 01:38:22;;;;;;;;;73.50;56.00;;;;;3.65;68.54;103403.94;6249853;22;45364;-86
2022/01/12 01:40:47;;;;;;;;;65.00;49.25;;;;;3.62;68.49;103400.25;6247821;22;47262;-85
2022/01/12 01:43:24;;;;;;;;;69.25;51.25;;;;;3.74;67.89;103421.88;6250176;22;45184;-87
2022/01/12 01:54:15;;;;;;;;;66.75;50.50;;;;;3.64;68.20;103423.00;6249451;22;45378;-89
2022/01/12 01:56:43;;;;;;;;;76.25;57.50;;;;;3.52;68.37;103397.00;6247137;22;45211;-86
2022/01/12 01:59:13;;;;;;;;;67.00;48.75;;;;;3.71;68.41;103430.41;6248956;22;45387;-86
2022/01/12 02:01:38;;;;;;;;;66.25;50.50;;;;;3.75;68.57;103432.44;6248698;22;47764;-87
2022/01/12 02:04:05;;;;;;;;;66.00;52.25;;;;;3.54;68.02;103395.41;6247321;22;45191;-87
2022/01/12 02:06:36;;;;;;;;;66.25;51.50;;;;;3.63;68.12;103404.66;6273711;22;45235;-86
2022/01/12 02:09:04;;;;;;;;;65.00;50.75;;;;;3.79;67.86;103432.63;6273377;22;45662;-85
2022/01/12 02:11:34;;;;;;;;;58.75;48.50;;;;;3.64;68.56;103422.09;6249408;22;46188;-88
2022/01/12 02:14:02;;;;;;;;;74.25;52.25;;;;;3.62;68.07;103437.59;6274718;22;45391;-87
2022/01/12 02:16:36;;;;;;;;;67.00;51.00;;;;;3.60;68.16;103425.28;6248981;22;45230;-86
2022/01/12 02:19:18;;;;;;;;;67.75;52.75;;;;;3.60;68.20;103410.53;6249813;22;45251;-85
2022/01/12 02:35:53;;;;;;;;;64.00;49.75;;;;;3.72;67.80;103392.25;6251126;22;45177;-85
2022/01/12 02:40:59;;;;;;;;;62.50;46.50;;;;;3.74;68.16;103383.75;6252067;22;45141;-85
2022/01/12 02:54:27;;;;;;;;;73.50;53.00;;;;;3.75;68.11;103346.47;6262703;22;45228;-86
2022/01/12 02:56:57;;;;;;;;;73.50;57.00;;;;;3.90;68.16;103380.47;6261573;22;45304;-87
2022/01/12 02:59:23;;;;;;;;;68.25;51.75;;;;;3.84;68.08;103369.59;6259121;22;45346;-87
2022/01/12 03:02:20;;;;;;;;;65.25;50.75;;;;;3.82;68.39;103366.00;6273677;22;45611;-87
2022/01/12 03:05:15;;;;;;;;;72.25;54.75;;;;;3.79;67.93;103376.22;6248984;22;45965;-89
2022/01/12 03:07:42;;;;;;;;;69.75;53.00;;;;;3.71;68.56;103377.41;6248356;22;45260;-87
2022/01/12 03:10:10;;;;;;;;;66.25;53.25;;;;;3.76;68.10;103405.56;6246471;22;45395;-87
2022/01/12 03:12:45;;;;;;;;;68.75;50.00;;;;;3.76;68.55;103421.19;6247423;22;45250;-86
2022/01/12 03:15:17;;;;;;;;;70.25;53.00;;;;;3.57;68.56;103384.28;6272831;22;47198;-86
2022/01/12 03:17:46;;;;;;;;;70.25;52.75;;;;;3.70;68.82;103419.91;6249265;22;45355;-87
2022/01/12 03:20:17;;;;;;;;;70.50;51.75;;;;;3.63;68.69;103426.38;6247610;22;45264;-86
2022/01/12 03:22:43;;;;;;;;;70.25;52.00;;;;;3.48;69.03;103395.00;6272427;22;45295;-86
2022/01/12 03:25:12;;;;;;;;;59.50;46.75;;;;;3.55;68.72;103404.13;6249018;22;46139;-86
2022/01/12 03:27:38;;;;;;;;;68.25;52.25;;;;;3.62;68.96;103416.78;6249484;22;45296;-86
2022/01/12 03:30:14;;;;;;;;;70.50;53.25;;;;;3.61;69.02;103417.59;6250047;22;45308;-87
2022/01/12 03:32:46;;;;;;;;;73.00;54.75;;;;;3.49;68.91;103381.16;6251396;22;44635;-84
2022/01/12 03:35:24;;;;;;;;;60.75;49.25;;;;;3.52;69.05;103383.97;6275079;22;47057;-87
2022/01/12 03:38:19;;;;;;;;;64.75;49.00;;;;;3.74;69.04;103416.69;6249184;22;45358;-87
2022/01/12 03:40:46;;;;;;;;;67.75;49.50;;;;;3.67;68.82;103397.16;6248570;22;45222;-88
2022/01/12 03:43:18;;;;;;;;;72.75;54.50;;;;;3.74;69.28;103395.84;6246920;22;45235;-88
2022/01/12 03:45:47;;;;;;;;;73.50;53.75;;;;;3.84;69.02;103402.59;6246273;22;46889;-88
2022/01/12 03:48:13;;;;;;;;;66.00;50.00;;;;;3.74;68.60;103391.56;6272820;22;45449;-88
2022/01/12 03:50:41;;;;;;;;;72.00;52.00;;;;;3.77;68.88;103414.31;6250336;22;45203;-89
2022/01/12 03:53:11;;;;;;;;;76.75;53.50;;;;;3.57;68.51;103394.72;6247965;22;45755;-88
2022/01/12 03:55:36;;;;;;;;;66.50;53.50;;;;;3.64;68.62;103419.50;6248917;22;47040;-87
2022/01/12 03:58:05;;;;;;;;;50.75;42.25;;;;;3.63;68.89;103442.00;6251264;22;46315;-87
2022/01/12 04:00:33;;;;;;;;;60.25;46.25;;;;;3.54;68.81;103437.09;6250450;22;45221;-88
2022/01/12 04:03:00;;;;;;;;;70.00;55.25;;;;;3.56;69.16;103444.13;6277428;22;45425;-88
2022/01/12 04:08:18;;;;;;;;;56.00;46.50;;;;;3.51;68.68;103454.22;6248937;22;47643;-88
2022/01/12 04:08:24;;;;;;;;;60.00;48.25;;;;;3.20;69.06;103427.75;6249358;22;45152;-88
2022/01/12 04:11:00;;;;;;;;;71.00;51.75;;;;;3.33;69.28;103459.03;6249937;22;45235;-88
2022/01/12 04:13:32;;;;;;;;;66.75;53.00;;;;;3.29;69.62;103464.84;6249247;22;45204;-88
2022/01/12 04:16:13;;;;;;;;;;;;;;;;;;;;;
2022/01/12 04:18:41;;;;;;;;;65.25;51.50;;;;;3.05;69.93;103461.41;6247148;22;73069;-88
2022/01/12 04:21:12;;;;;;;;;71.50;56.00;;;;;3.11;69.94;103480.06;6271802;22;45360;-88
2022/01/12 04:23:43;;;;;;;;;66.00;52.00;;;;;3.18;69.91;103495.31;6249084;22;45155;-88
2022/01/12 04:26:17;;;;;;;;;64.50;49.25;;;;;3.01;70.47;103477.59;6248845;22;46302;-89
2022/01/12 04:28:44;;;;;;;;;68.75;52.75;;;;;3.15;70.41;103500.28;6246823;22;45202;-87
2022/01/12 04:31:13;;;;;;;;;67.00;53.25;;;;;3.03;70.39;103483.81;6245835;22;45131;-87
2022/01/12 04:33:45;;;;;;;;;68.00;52.00;;;;;2.98;70.02;103465.25;6247146;22;45991;-88
2022/01/12 04:36:20;;;;;;;;;74.75;53.00;;;;;3.21;70.58;103497.25;6273714;22;47958;-87
2022/01/12 04:38:45;;;;;;;;;63.75;50.50;;;;;3.11;70.30;103482.66;6249845;22;45230;-88
2022/01/12 04:41:12;;;;;;;;;61.00;49.50;;;;;3.12;70.39;103500.06;6247673;22;45326;-85
2022/01/12 04:43:50;;;;;;;;;66.75;49.75;;;;;3.15;70.20;103508.09;6250405;22;45421;-87
2022/01/12 04:46:51;;;;;;;;;57.75;45.00;;;;;3.18;70.11;103500.53;6250342;22;45283;-88
2022/01/12 04:49:37;;;;;;;;;64.75;50.00;;;;;3.04;70.39;103475.19;6249212;22;45152;-88
2022/01/12 04:52:11;;;;;;;;;68.00;54.00;;;;;3.01;70.63;103475.00;6247730;22;45224;-88
2022/01/12 04:54:41;;;;;;;;;66.25;49.25;;;;;3.20;70.01;103517.13;6272734;22;46325;-87
2022/01/12 04:57:15;;;;;;;;;64.75;50.25;;;;;3.00;70.63;103474.09;6249881;22;45341;-87
2022/01/12 05:00:03;;;;;;;;;63.75;48.00;;;;;3.19;70.57;103515.34;6249368;22;45376;-88
2022/01/12 05:08:16;;;;;;;;;54.00;45.25;;;;;3.00;70.12;103496.63;6249827;22;45367;-88
2022/01/12 05:13:49;;;;;;;;;66.50;50.00;;;;;2.87;70.62;103489.63;6249144;22;45377;-88
2022/01/12 05:16:21;;;;;;;;;65.00;49.25;;;;;3.12;70.73;103533.91;6248775;22;45515;-87
2022/01/12 05:18:53;;;;;;;;;57.50;45.00;;;;;3.02;70.66;103508.00;6249197;22;45303;-88
2022/01/12 05:21:21;;;;;;;;;62.75;48.25;;;;;3.11;70.71;103510.41;6247863;22;45399;-89
2022/01/12 05:23:50;;;;;;;;;61.25;49.25;;;;;3.19;70.60;103504.94;6247638;22;45379;-88
2022/01/12 05:26:18;;;;;;;;;62.00;47.25;;;;;3.03;70.17;103471.69;6247721;22;45415;-88
2022/01/12 05:28:46;;;;;;;;;62.00;48.25;;;;;3.05;70.19;103464.03;6247587;22;46180;-88
2022/01/12 05:31:24;;;;;;;;;68.00;50.50;;;;;3.26;70.42;103501.97;6248967;22;45337;-88
2022/01/12 05:33:51;;;;;;;;;60.50;45.75;;;;;3.19;70.57;103483.22;6250555;22;45294;-88
2022/01/12 05:36:24;;;;;;;;;65.75;47.25;;;;;3.16;70.31;103481.28;6273921;22;45334;-88
2022/01/12 05:38:52;;;;;;;;;68.50;52.75;;;;;3.18;70.23;103476.19;6247072;22;46761;-88
2022/01/12 05:41:23;;;;;;;;;66.00;50.75;;;;;3.37;70.38;103505.34;6249352;22;45190;-88
2022/01/12 05:43:56;;;;;;;;;56.25;45.50;;;;;3.19;70.17;103460.69;6275582;22;45169;-89
2022/01/12 05:46:32;;;;;;;;;65.00;45.25;;;;;3.23;69.92;103473.09;6251198;22;45380;-88
2022/01/12 05:51:47;;;;;;;;;70.00;52.25;;;;;3.36;69.61;103495.69;6254364;22;45105;-88
2022/01/12 05:54:17;;;;;;;;;68.50;55.00;;;;;3.35;69.99;103495.59;6247827;22;45242;-88
2022/01/12 05:56:48;;;;;;;;;53.00;44.75;;;;;3.25;70.29;103481.03;6250058;22;45306;-88
2022/01/12 05:59:23;;;;;;;;;63.50;48.75;;;;;3.43;69.96;103517.88;6249438;22;46979;-89
2022/01/12 06:01:51;;;;;;;;;70.50;51.75;;;;;3.27;69.99;103487.25;6275366;22;45870;-88
2022/01/12 06:04:21;;;;;;;;;67.75;47.75;;;;;3.26;69.75;103488.97;6250355;22;45296;-86
2022/01/12 06:06:56;;;;;;;;;62.50;49.00;;;;;3.43;70.07;103520.47;6249127;22;45515;-89
2022/01/12 06:09:28;;;;;;;;;56.25;42.50;;;;;3.39;70.21;103506.31;6250863;22;45387;-86
2022/01/12 06:11:54;;;;;;;;;58.75;43.00;;;;;3.38;69.90;103508.84;6275882;22;45958;-89
2022/01/12 06:14:25;;;;;;;;;63.50;48.75;;;;;3.40;70.08;103502.94;6250339;22;45169;-88
2022/01/12 06:16:53;;;;;;;;;66.25;48.25;;;;;3.38;69.62;103501.91;6275079;22;45285;-89
2022/01/12 06:19:23;;;;;;;;;68.25;49.00;;;;;3.31;69.78;103486.66;6275505;22;47098;-89
2022/01/12 06:21:53;;;;;;;;;61.00;45.50;;;;;3.44;70.24;103510.16;6247387;22;45396;-89
2022/01/12 06:24:21;;;;;;;;;61.25;45.25;;;;;3.35;69.88;103493.00;6246428;22;45209;-87
2022/01/12 06:26:57;;;;;;;;;60.00;47.75;;;;;3.44;69.77;103488.41;6272720;22;45348;-88
2022/01/12 06:29:44;;;;;;;;;68.50;52.50;;;;;3.43;70.24;103494.44;6272510;22;47040;-88
2022/01/12 06:32:14;;;;;;;;;64.25;51.75;;;;;3.46;70.21;103503.34;6272713;22;45490;-88
2022/01/12 06:34:42;;;;;;;;;72.50;51.75;;;;;3.37;70.21;103486.19;6252993;22;45201;-88
2022/01/12 06:37:16;;;;;;;;;61.00;49.00;;;;;3.53;69.97;103520.34;6252925;22;45358;-88
2022/01/12 06:39:44;;;;;;;;;70.00;52.00;;;;;3.45;70.06;103511.97;6260957;22;47084;-88
2022/01/12 06:42:14;;;;;;;;;62.00;49.75;;;;;3.45;70.01;103525.00;6266584;22;45880;-87
2022/01/12 06:44:44;;;;;;;;;65.50;52.50;;;;;3.48;69.94;103539.94;6286577;22;44985;-87
2022/01/12 06:47:13;;;;;;;;;66.00;52.50;;;;;3.37;70.07;103520.97;6249041;22;45434;-88
2022/01/12 06:49:48;;;;;;;;;58.50;47.25;;;;;3.27;69.80;103500.28;6248534;22;45349;-88
2022/01/12 06:52:18;;;;;;;;;69.25;51.25;;;;;3.34;69.97;103514.59;6248019;22;45158;-87
2022/01/12 06:54:49;;;;;;;;;60.00;49.25;;;;;3.43;69.94;103523.09;6274446;22;45438;-87
2022/01/12 06:57:17;;;;;;;;;61.25;42.50;;;;;3.44;70.36;103535.28;6249381;22;45378;-87
2022/01/12 06:59:44;;;;;;;;;62.25;50.50;;;;;3.24;70.42;103508.75;6248712;22;46999;-89
2022/01/12 07:02:10;;;;;;;;;65.25;50.25;;;;;3.22;70.69;103491.22;6246553;22;45272;-89
2022/01/12 07:04:37;;;;;;;;;62.75;48.50;;;;;3.47;70.31;103536.41;6248589;22;45272;-87
2022/01/12 07:07:05;;;;;;;;;67.25;52.75;;;;;3.41;70.71;103524.66;6271790;22;45333;-88
2022/01/12 07:09:33;;;;;;;;;68.75;52.50;;;;;3.51;69.88;103538.44;6271594;22;48230;-88
2022/01/12 07:12:05;;;;;;;;;61.25;48.00;;;;;3.47;70.60;103520.78;6271856;22;45340;-88
2022/01/12 07:14:33;;;;;;;;;66.25;50.25;;;;;3.40;70.12;103510.75;6247550;22;45232;-88
2022/01/12 07:17:03;;;;;;;;;70.00;53.25;;;;;3.52;70.37;103526.31;6270949;22;45464;-88
2022/01/12 07:19:31;;;;;;;;;70.00;53.75;;;;;3.54;70.67;103515.22;6247842;22;46509;-87
2022/01/12 07:22:01;;;;;;;;;66.50;50.50;;;;;3.40;70.38;103487.31;6298070;22;45521;-88
2022/01/12 07:24:44;;;;;;;;;;;;;;;;;;;;;
2022/01/12 07:27:43;;;;;;;;;69.00;51.00;;;;;3.63;70.43;103522.75;6248332;22;72123;-87
2022/01/12 07:30:09;;;;;;;;;64.50;48.25;;;;;3.53;70.29;103512.53;6212961;22;45253;-89
2022/01/12 07:32:36;;;;;;;;;66.75;48.25;;;;;3.53;70.08;103525.53;6246302;22;45976;-87
2022/01/12 07:35:05;;;;;;;;;67.25;51.50;;;;;3.58;70.33;103526.75;6271294;22;45269;-85
2022/01/12 07:37:36;;;;;;;;;72.25;53.75;;;;;3.64;70.58;103550.63;6245179;22;45439;-84
2022/01/12 07:40:21;;;;;;;;;68.50;51.25;;;;;3.57;70.34;103545.78;6245157;22;46589;-83
2022/01/12 07:42:58;;;;;;;;;70.25;52.25;;;;;3.53;70.39;103538.56;6244668;22;45149;-84
2022/01/12 07:45:34;;;;;;;;;50.25;42.75;;;;;3.56;69.91;103535.28;6271003;22;45558;-85
2022/01/12 07:48:00;;;;;;;;;68.75;53.75;;;;;3.44;70.26;103527.47;6247562;22;45355;-85
2022/01/12 07:50:31;;;;;;;;;68.75;53.50;;;;;3.61;70.30;103570.31;6246987;22;45324;-84
2022/01/12 07:52:58;;;;;;;;;67.25;52.75;;;;;3.59;70.24;103575.44;6244793;22;45257;-84
2022/01/12 07:55:32;;;;;;;;;66.50;50.75;;;;;3.37;70.18;103539.19;6245550;22;45240;-83
2022/01/12 07:58:00;;;;;;;;;65.00;50.25;;;;;3.59;70.58;103578.06;6247533;22;45406;-84
2022/01/12 08:00:35;;;;;;;;;67.25;52.25;;;;;3.53;70.32;103573.31;6245003;22;46906;-86
2022/01/12 08:03:03;;;;;;;;;71.00;54.75;;;;;3.46;70.62;103577.97;6244538;22;45426;-83
2022/01/12 08:05:31;;;;;;;;;63.25;49.25;;;;;3.59;70.76;103605.81;6271352;22;45180;-85
2022/01/12 08:08:03;;;;;;;;;71.25;55.50;;;;;3.67;70.83;103609.84;6248413;22;45137;-88
2022/01/12 08:10:46;;;;;;;;;73.00;53.75;;;;;3.52;70.57;103575.81;6246487;22;47895;-90
2022/01/12 08:19:34;;;;;;;;;66.00;52.25;;;;;3.83;70.62;103630.09;6182265;23;45512;-86
2022/01/12 08:22:03;;;;;;;;;67.25;51.75;;;;;3.71;70.24;103606.66;6248324;22;45397;-87
2022/01/12 08:24:41;;;;;;;;;66.50;49.25;;;;;3.70;70.55;103597.03;6277678;22;45330;-88
2022/01/12 08:27:15;;;;;;;;;62.75;48.00;;;;;3.79;70.34;103620.22;6276985;22;45208;-89
2022/01/12 08:29:49;;;;;;;;;66.25;52.00;;;;;3.82;69.85;103623.94;6248350;22;45334;-86
2022/01/12 08:32:20;;;;;;;;;57.00;44.25;;;;;3.92;70.02;103633.31;6248158;22;45393;-87
2022/01/12 08:34:48;;;;;;;;;65.25;50.00;;;;;3.82;69.74;103618.72;6250710;22;45393;-88
2022/01/12 08:37:27;;;;;;;;;66.00;47.50;;;;;3.94;70.03;103642.16;6286536;22;45343;-88
2022/01/12 08:40:00;;;;;;;;;64.25;50.50;;;;;3.90;70.04;103627.09;6291983;22;44693;-89
2022/01/12 08:42:47;;;;;;;;;60.25;49.00;;;;;3.94;69.75;103640.47;6293217;22;46736;-89
2022/01/12 08:45:22;;;;;;;;;64.25;48.50;;;;;3.92;70.16;103635.94;6263979;22;45272;-90
2022/01/12 08:47:57;;;;;;;;;71.75;51.50;;;;;3.98;70.26;103649.38;6251495;22;45330;-90
2022/01/12 08:50:36;;;;;;;;;;;;;;;;;;;;;
2022/01/12 08:53:11;;;;;;;;;68.25;50.00;;;;;3.83;69.77;103633.59;6252186;22;74560;-92
2022/01/12 08:55:44;;;;;;;;;63.75;48.50;;;;;3.88;70.33;103646.94;6253248;22;45553;-92
2022/01/12 08:58:18;;;;;;;;;64.75;48.25;;;;;3.73;70.34;103631.13;6278506;22;45301;-89
2022/01/12 09:00:49;;;;;;;;;67.25;53.00;;;;;3.98;70.11;103662.41;6275549;22;45555;-87
2022/01/12 09:03:22;;;;;;;;;61.25;48.75;;;;;3.95;70.44;103654.38;6247269;22;46738;-88
2022/01/12 09:05:53;;;;;;;;;66.25;51.25;;;;;4.02;70.06;103658.34;6252691;22;45182;-90
2022/01/12 09:08:21;;;;;;;;;67.25;52.75;;;;;3.94;69.84;103657.81;6251140;22;45207;-87
2022/01/12 09:10:46;;;;;;;;;64.25;49.25;;;;;3.86;69.93;103646.84;6271229;22;45362;-84
2022/01/12 09:13:20;;;;;;;;;70.00;51.25;;;;;4.01;69.82;103674.75;6248573;22;46016;-85
2022/01/12 09:15:48;;;;;;;;;71.00;50.50;;;;;4.01;70.17;103682.56;6270469;22;45227;-85
2022/01/12 09:18:18;;;;;;;;;67.25;52.50;;;;;4.05;69.81;103687.22;6249346;22;45235;-87
2022/01/12 09:20:49;;;;;;;;;64.75;47.50;;;;;3.90;70.17;103674.00;6247720;22;45123;-86
2022/01/12 09:23:25;;;;;;;;;73.50;57.00;;;;;3.88;69.64;103675.63;6248326;22;45433;-85
2022/01/12 09:25:53;;;;;;;;;68.00;52.25;;;;;4.08;69.41;103724.84;6247856;22;45297;-86
2022/01/12 09:28:21;;;;;;;;;66.00;46.50;;;;;4.05;69.50;103724.63;6272810;22;45140;-86
2022/01/12 09:30:52;;;;;;;;;58.50;47.00;;;;;4.07;69.63;103730.84;6246865;22;45624;-88
2022/01/12 09:33:18;;;;;;;;;57.00;42.25;;;;;4.04;69.27;103733.25;6248508;22;47231;-88
2022/01/12 09:35:49;;;;;;;;;65.25;50.25;;;;;3.99;69.56;103721.59;6250834;22;45213;-87
2022/01/12 09:38:17;;;;;;;;;63.00;46.00;;;;;3.98;69.81;103720.69;6247976;22;45315;-89
2022/01/12 09:40:59;;;;;;;;;61.50;46.25;;;;;4.12;69.48;103728.59;6271328;22;45398;-89
2022/01/12 09:43:32;;;;;;;;;63.75;47.00;;;;;4.18;69.58;103729.00;6243953;22;48019;-85
2022/01/12 09:46:27;;;;;;;;;;;;;;;;;;;;;
2022/01/12 09:49:06;;;;;;;;;64.75;53.50;;;;;4.18;69.17;103731.63;6243857;22;69752;-89
2022/01/12 09:51:41;;;;;;;;;70.50;53.25;;;;;4.18;68.72;103736.84;6270733;22;45452;-85
2022/01/12 09:54:11;;;;;;;;;60.50;46.25;;;;;4.25;69.29;103732.94;6269937;22;47102;-80
2022/01/12 09:57:03;;;;;;;;;62.50;47.50;;;;;4.17;69.07;103714.13;6246927;22;45172;-84
2022/01/12 09:59:28;;;;;;;;;63.50;51.00;;;;;4.39;68.53;103754.00;6270325;22;45357;-84
2022/01/12 10:02:13;;;;;;;;;61.75;51.00;;;;;4.27;68.74;103723.53;6269958;22;45522;-84
2022/01/12 10:04:38;;;;;;;;;60.50;47.25;;;;;4.27;69.00;103711.38;6270385;22;48393;-84
2022/01/12 10:07:07;;;;;;;;;64.75;52.00;;;;;4.40;68.70;103729.69;6246619;22;45165;-84
2022/01/12 10:09:44;;;;;;;;;65.25;48.75;;;;;4.60;68.88;103748.47;6269954;22;45134;-81
2022/01/12 10:12:27;;;;;;;;;58.50;46.25;;;;;4.58;68.48;103748.34;6267332;22;45487;-82
2022/01/12 10:15:11;;;;;;;;;66.25;50.50;;;;;4.75;68.33;103761.66;6269161;22;47445;-83
2022/01/12 10:17:44;;;;;;;;;64.25;47.50;;;;;4.56;68.09;103718.63;6246428;22;45247;-83
2022/01/12 10:20:21;;;;;;;;;63.50;48.00;;;;;4.84;68.24;103754.47;6244455;22;45280;-83
2022/01/12 10:23:06;;;;;;;;;58.00;43.50;;;;;4.90;68.30;103752.25;6246669;22;45269;-83
2022/01/12 10:25:39;;;;;;;;;65.25;49.50;;;;;4.84;68.33;103730.97;6247601;22;46148;-83
2022/01/12 10:28:30;;;;;;;;;58.50;45.25;;;;;5.05;67.79;103737.66;6270909;22;45292;-84
2022/01/12 10:30:58;;;;;;;;;67.50;51.00;;;;;4.98;67.43;103711.91;6271756;22;45398;-83
2022/01/12 10:34:03;;;;;;;;;53.75;41.00;;;;;5.14;67.15;103729.53;6246202;22;45375;-84
2022/01/12 10:37:00;;;;;;;;;42.50;34.75;;;;;5.10;66.73;103724.88;6236621;22;45346;-84
2022/01/12 10:39:29;;;;;;;;;58.75;46.25;;;;;5.09;66.74;103729.19;6256872;22;45106;-84
2022/01/12 10:42:06;;;;;;;;;58.75;47.00;;;;;5.16;66.91;103740.03;6246003;22;45671;-83
2022/01/12 10:44:37;;;;;;;;;62.50;49.75;;;;;5.25;66.63;103744.19;6246398;22;45792;-84
2022/01/12 10:47:15;;;;;;;;;61.25;49.00;;;;;5.39;66.63;103754.66;6246193;22;46032;-84
2022/01/12 10:49:58;;;;;;;;;62.50;47.75;;;;;5.42;66.66;103728.72;6246215;22;45375;-83
2022/01/12 10:53:19;;;;;;;;;65.25;47.75;;;;;5.47;66.40;103724.69;6246901;22;45495;-83
2022/01/12 10:56:01;;;;;;;;;;;;;;;;;;;;;
2022/01/12 10:58:41;;;;;;;;;58.50;45.50;;;;;5.61;65.66;103728.22;6242965;22;74455;-85
2022/01/12 11:38:47;;;;;;;;;;;;;;;;;;;;;
2022/01/12 11:42:14;;;;;;;;;60.25;47.25;;;;;6.08;64.29;103733.00;6248328;22;73442;-89
2022/01/12 11:48:24;;;;;;;;;62.75;50.50;;;;;6.07;64.41;103728.59;6252878;22;45422;-89
2022/01/12 11:50:55;;;;;;;;;60.75;49.00;;;;;6.14;64.10;103734.28;6136820;23;45116;-85
2022/01/12 11:53:31;;;;;;;;;60.25;47.75;;;;;6.10;64.35;103721.84;6248214;22;45370;-85
2022/01/12 11:56:11;;;;;;;;;65.25;48.25;;;;;6.12;64.12;103717.59;6285573;22;44662;-84
2022/01/12 11:58:59;;;;;;;;;62.00;47.00;;;;;6.16;63.98;103709.13;6257054;22;44865;-84
2022/01/12 12:01:40;;;;;;;;;57.25;45.50;;;;;6.24;64.07;103711.31;6252112;22;46348;-85
2022/01/12 12:04:22;;;;;;;;;57.00;47.75;;;;;6.19;63.70;103705.81;6258114;22;44806;-85
2022/01/12 12:06:50;;;;;;;;;63.75;50.00;;;;;6.34;63.96;103729.41;6252970;22;45409;-83
2022/01/12 12:09:24;;;;;;;;;59.75;47.75;;;;;6.25;63.85;103708.78;6250923;22;45487;-83
2022/01/12 12:12:09;;;;;;;;;58.00;47.75;;;;;6.17;63.63;103694.34;6249089;22;46544;-85
2022/01/12 12:14:39;;;;;;;;;58.50;47.25;;;;;6.27;63.77;103711.50;6256341;22;45357;-83
2022/01/12 12:17:12;;;;;;;;;58.75;46.00;;;;;6.31;63.71;103717.03;6249759;22;45336;-85
2022/01/12 12:19:40;;;;;;;;;64.00;51.25;;;;;6.21;63.81;103687.59;6243405;22;45782;-84
2022/01/12 12:22:30;;;;;;;;;61.00;50.25;;;;;6.25;63.62;103690.47;6244261;22;46050;-83
2022/01/12 12:25:10;;;;;;;;;62.50;48.25;;;;;6.25;63.39;103674.78;6246812;22;45421;-84
2022/01/12 12:27:40;;;;;;;;;59.50;46.25;;;;;6.40;63.58;103704.50;6253641;22;45407;-85
2022/01/12 12:30:12;;;;;;;;;58.00;45.25;;;;;6.44;63.82;103710.81;6252859;22;45789;-85
2022/01/12 12:32:42;;;;;;;;;60.25;46.75;;;;;6.24;63.45;103667.75;6255138;22;45482;-83
2022/01/12 12:35:24;;;;;;;;;52.25;41.75;;;;;6.38;63.48;103687.81;6252748;22;45417;-83
2022/01/12 12:37:57;;;;;;;;;62.75;48.25;;;;;6.47;63.42;103689.16;6249693;22;45342;-86
2022/01/12 12:40:46;;;;;;;;;66.75;51.00;;;;;6.49;63.39;103688.44;6246975;22;45513;-83
2022/01/12 12:43:25;;;;;;;;;64.00;51.75;;;;;6.53;63.47;103679.09;6248186;22;46161;-84
2022/01/12 12:45:56;;;;;;;;;65.25;50.50;;;;;6.53;63.58;103671.25;6245663;22;45242;-82
2022/01/12 12:48:36;;;;;;;;;63.50;50.25;;;;;6.66;63.40;103679.03;6243641;22;45279;-83
2022/01/12 12:51:11;;;;;;;;;66.25;49.25;;;;;6.67;63.18;103667.72;6244528;22;45361;-84
2022/01/12 12:53:57;;;;;;;;;58.75;43.50;;;;;6.70;63.09;103662.66;6244741;22;47553;-85
2022/01/12 12:56:28;;;;;;;;;61.00;48.75;;;;;6.62;63.16;103641.25;6247087;22;45573;-84
2022/01/12 12:59:05;;;;;;;;;60.50;50.50;;;;;6.57;63.03;103623.47;6248027;22;45315;-87
2022/01/12 13:01:31;;;;;;;;;62.50;50.25;;;;;6.59;63.09;103616.63;6271201;22;45653;-84
2022/01/12 13:04:03;;;;;;;;;63.50;48.00;;;;;6.80;62.96;103643.19;6245049;22;46792;-83
2022/01/12 13:06:36;;;;;;;;;64.00;50.75;;;;;6.86;62.87;103648.75;6246853;22;45328;-82
2022/01/12 13:09:08;;;;;;;;;61.25;46.75;;;;;6.74;62.86;103632.34;6246195;22;45363;-84
2022/01/12 13:11:46;;;;;;;;;67.25;51.00;;;;;6.84;62.97;103640.84;6243929;22;45378;-87
2022/01/12 13:14:14;;;;;;;;;64.25;48.75;;;;;6.83;62.51;103622.41;6245279;22;45462;-86
2022/01/12 13:16:52;;;;;;;;;66.00;51.00;;;;;6.77;62.50;103617.72;6244089;22;45891;-86
2022/01/12 13:22:40;;;;;;;;;62.75;49.75;;;;;7.00;62.63;103652.19;6246815;22;45295;-88
2022/01/12 13:25:12;;;;;;;;;65.50;51.50;;;;;6.80;62.02;103607.41;6247363;22;45335;-87
2022/01/12 13:27:45;;;;;;;;;60.75;45.75;;;;;6.82;62.10;103610.13;6244620;22;45655;-87
2022/01/12 13:30:22;;;;;;;;;62.50;49.25;;;;;6.85;62.38;103607.69;6247272;22;45275;-87
2022/01/12 13:33:02;;;;;;;;;63.00;51.25;;;;;7.08;62.28;103648.28;6246735;22;45389;-88
2022/01/12 13:35:44;;;;;;;;;60.50;47.00;;;;;6.97;62.12;103621.47;6247668;22;46096;-86
2022/01/12 13:38:25;;;;;;;;;68.50;51.50;;;;;7.14;61.97;103647.75;6245403;22;45299;-86
2022/01/12 13:40:55;;;;;;;;;56.00;44.50;;;;;6.91;61.99;103615.88;6249678;22;45368;-84
2022/01/12 13:43:27;;;;;;;;;61.75;48.00;;;;;7.06;61.79;103631.59;6248509;22;45431;-88
2022/01/12 13:46:11;;;;;;;;;;;;;;;;;;;;;
2022/01/12 13:48:53;;;;;;;;;53.75;44.00;;;;;7.07;61.60;103651.72;6247900;22;72966;-86
2022/01/12 13:51:28;;;;;;;;;62.75;48.25;;;;;7.01;61.72;103643.53;6249207;22;45317;-86
2022/01/12 13:54:09;;;;;;;;;58.75;47.50;;;;;7.09;61.94;103665.81;6250726;22;45312;-87
2022/01/12 13:56:59;;;;;;;;;58.00;46.75;;;;;6.84;61.79;103619.88;6247378;22;45411;-86
2022/01/12 13:59:30;;;;;;;;;64.50;52.00;;;;;6.81;61.86;103631.88;6248751;22;45257;-86
2022/01/12 14:02:04;;;;;;;;;68.25;52.25;;;;;6.94;61.94;103655.34;6250449;22;45293;-86